Aviation Digital Data Service (ADDS)

Output produced by METARs form (1903 UTC 18 June 2019)
found at http://www.aviationweather.gov/metar/data/
 
FKKD 181800Z VRB03KT 9999 SCT016 FEW020CB 28/25 Q1012 NOSIG
TAF FKKD 181700Z 1818/1924 VRB03KT 9999 SCT016 FEW020CB 
     PROB30 1900/1906 4000 TSRA BKN013 FEW016CB
       
FKKR 181800Z 22002KT 9999 TS FEW020 FEW023CB 32/23 Q1010 NOSIG
TAF FKKR 181100Z 1812/1818 26006KT 9999 FEW020
       
FKKN 181400Z 12006KT 9999 TS SCT016 FEW020CB 26/18 Q1017
FKYS 181800Z VRB02KT 8000 TS FEW013 FEW020CB 25/23 Q1018 NOSIG
TAF FKYS 181700Z 1818/1918 VRB03KT 9999 SCT013 
     BECMG 1820/1822 BKN006 
     BECMG 1906/1908 BKN016